Estación meteorológica de Cercs - La Baells (Berguedà, Cercs)

Consulta los datos en tiempo real de la estación meteorológica de Cercs - La Baells





Hora UTC 16:30
Temperatura 27.3 ºC
Humedad 53.0 %
Presión 1018.2 hPa
Pluja 0.0 mm
Velocidad viento 1.4 km/h
Dirección viento ESE

Datos diarios 2026-08-31



Hora UTC (invierno +1h; verano +2h)
DADES NO VALIDADES
Temperatura (ºC) Humedad (%) Presión (hPa) Velocidad viento (km/h) Precipitación (mm)
Hora UTC Aire Humedad Presión Vel. Dir. Vel. Max Dir. Intent. máx 5 min.
00:05 17.9 66.9 1018.2 0.7 N 0.7 N 0.0
00:10 18.0 66.2 1018.2 0.2 NNW 0.7 N 0.0
00:15 18.0 66.1 1018.2 0.1 NNW 0.7 N 0.0
00:20 17.9 66.2 1018.2 0.1 N 0.7 N 0.0
00:25 17.9 66.3 1018.2 0.1 N 0.7 N 0.0
00:30 17.9 66.4 1018.2 0.2 NNW 0.7 N 0.0
00:35 17.9 66.4 1018.2 0.2 NNW 0.7 N 0.0
00:40 17.6 67.5 1018.2 0.3 N 0.7 N 0.0
00:45 17.6 67.8 1018.2 0.3 N 0.7 N 0.0
00:50 17.4 68.6 1018.2 0.2 NNW 0.7 N 0.0
00:55 17.4 68.7 1018.2 0.2 NNW 0.7 N 0.0
01:00 17.3 69.6 1018.2 0.1 NNW 0.7 N 0.0
01:05 17.2 69.8 1018.2 0.1 NNW 0.7 N 0.0
01:10 16.6 72.0 1018.2 0.1 ESE 0.7 N 0.0
01:15 16.5 72.5 1018.2 0.1 ENE 0.7 N 0.0
01:20 16.5 74.5 1018.2 1.5 W 1.5 W 0.0
01:25 16.4 75.0 1018.2 1.8 NNW 1.8 NNW 0.0
01:30 16.5 74.9 1018.2 1.3 NW 1.8 NNW 0.0
01:35 16.6 74.9 1018.2 1.2 NW 1.8 NNW 0.0
01:40 16.4 75.3 1018.2 0.3 NNW 1.8 NNW 0.0
01:45 16.3 75.4 1018.2 0.1 NNW 1.8 NNW 0.0
01:50 16.3 75.6 1018.2 0.3 NNW 1.8 NNW 0.0
01:55 16.3 75.6 1018.2 0.3 NNW 1.8 NNW 0.0
01:55 16.3 75.6 1018.2 0.3 NNW 1.8 NNW 0.0
01:55 16.3 75.6 1018.2 0.3 NNW 1.8 NNW 0.0
02:15 16.5 74.1 1018.2 0.4 NNW 1.8 NNW 0.0
02:20 16.3 75.1 1018.2 0.1 SW 1.8 NNW 0.0
02:25 16.3 75.4 1018.2 0.0 SSW 1.8 NNW 0.0
02:30 16.2 75.2 1018.2 0.2 NW 1.8 NNW 0.0
02:35 16.1 75.2 1018.2 0.3 NNW 1.8 NNW 0.0
02:40 16.3 74.0 1018.2 0.3 NNW 1.8 NNW 0.0
02:45 16.4 73.7 1018.2 0.3 NNW 1.8 NNW 0.0
02:50 16.0 76.1 1018.2 0.2 NNW 1.8 NNW 0.0
02:55 16.0 76.6 1018.2 0.1 NNW 1.8 NNW 0.0
03:00 16.0 76.6 1018.2 0.2 NNW 1.8 NNW 0.0
03:05 16.0 76.6 1018.2 0.3 NNW 1.8 NNW 0.0
03:10 16.1 75.5 1018.2 0.7 NNW 1.8 NNW 0.0
03:15 16.1 75.3 1018.2 0.7 NNW 1.8 NNW 0.0
03:20 16.0 75.7 1018.2 0.5 NNW 1.8 NNW 0.0
03:25 16.0 75.8 1018.2 0.5 NNW 1.8 NNW 0.0
03:30 16.3 74.6 1018.2 0.3 NNW 1.8 NNW 0.0
03:35 16.3 74.3 1018.2 0.3 NNW 1.8 NNW 0.0
03:40 16.2 74.7 1018.2 0.7 NNW 1.8 NNW 0.0
03:45 16.2 74.8 1018.2 0.8 NNW 1.8 NNW 0.0
03:50 15.7 78.6 1018.2 0.9 NNW 1.8 NNW 0.0
03:55 15.5 79.4 1018.2 1.0 NNW 1.8 NNW 0.0
04:00 15.9 76.3 1018.2 0.7 NNW 1.8 NNW 0.0
04:05 16.0 75.5 1018.2 0.6 NNW 1.8 NNW 0.0
04:10 15.9 76.0 1018.2 0.3 NNW 1.8 NNW 0.0
04:15 15.9 76.1 1018.2 0.2 NNW 1.8 NNW 0.0
04:20 15.9 76.3 1018.2 0.4 NNW 1.8 NNW 0.0
04:25 15.8 76.3 1018.2 0.5 NNW 1.8 NNW 0.0
04:30 15.9 74.6 1018.2 0.9 NNW 1.8 NNW 0.0
04:35 15.9 74.3 1018.2 1.0 NNW 1.8 NNW 0.0
04:40 15.9 75.8 1018.2 0.9 NNW 1.8 NNW 0.0
04:45 15.9 76.0 1018.2 0.9 NNW 1.8 NNW 0.0
04:50 15.8 76.2 1018.2 0.9 NW 1.8 NNW 0.0
04:55 15.8 76.2 1018.2 0.9 NW 1.8 NNW 0.0
05:00 15.8 75.7 1018.2 1.0 NNW 1.8 NNW 0.0
05:05 15.8 75.6 1018.2 1.0 NNW 1.8 NNW 0.0
05:10 15.7 76.1 1018.2 1.0 NNW 1.8 NNW 0.0
05:15 15.7 76.3 1018.2 1.0 NNW 1.8 NNW 0.0
05:20 15.7 76.1 1018.2 0.7 NNW 1.8 NNW 0.0
05:25 15.7 76.0 1018.2 0.7 NNW 1.8 NNW 0.0
05:30 15.6 77.4 1018.2 0.5 NNW 1.8 NNW 0.0
05:35 15.6 77.7 1018.2 0.5 NNW 1.8 NNW 0.0
05:40 15.6 77.3 1018.2 0.5 NNW 1.8 NNW 0.0
05:45 15.6 77.3 1018.2 0.6 NNW 1.8 NNW 0.0
05:50 15.6 76.6 1018.2 0.5 NNW 1.8 NNW 0.0
05:55 15.7 76.5 1018.2 0.5 NNW 1.8 NNW 0.0
05:55 15.7 76.5 1018.2 0.5 NNW 1.8 NNW 0.0
05:55 15.7 76.5 1018.2 0.5 NNW 1.8 NNW 0.0
06:10 15.5 78.2 1018.2 0.5 NNW 1.8 NNW 0.0
06:15 15.5 77.9 1018.2 0.6 NNW 1.8 NNW 0.0
06:20 15.9 77.0 1019.1 0.4 NNW 1.8 NNW 0.0
06:25 16.0 76.9 1019.2 0.4 NNW 1.8 NNW 0.0
06:30 16.1 75.4 1019.2 0.2 ENE 1.8 NNW 0.0
06:35 16.2 75.1 1019.2 0.1 N 1.8 NNW 0.0
06:40 16.4 73.9 1019.2 0.7 W 1.8 NNW 0.0
06:45 16.4 73.7 1019.2 0.8 NW 1.8 NNW 0.0
06:50 16.7 70.8 1019.2 0.7 NW 1.8 NNW 0.0
06:55 16.8 70.1 1019.2 0.7 NW 1.8 NNW 0.0
07:00 17.5 68.6 1019.2 0.2 NNW 1.8 NNW 0.0
07:05 17.6 68.3 1019.2 0.2 NNW 1.8 NNW 0.0
07:10 18.2 66.3 1019.2 0.2 NNW 1.8 NNW 0.0
07:15 18.3 65.9 1019.2 0.2 NNW 1.8 NNW 0.0
07:20 19.0 63.4 1019.2 0.5 NNW 1.8 NNW 0.0
07:25 19.1 63.0 1019.2 0.6 NNW 1.8 NNW 0.0
07:30 19.6 62.0 1019.2 0.5 NNW 1.8 NNW 0.0
07:35 19.7 61.8 1019.2 0.5 NNW 1.8 NNW 0.0
07:40 20.0 61.4 1019.2 0.2 SW 1.8 NNW 0.0
07:45 20.1 61.3 1019.2 0.2 SSW 1.8 NNW 0.0
07:50 20.8 59.4 1019.2 0.2 SSW 1.8 NNW 0.0
07:55 20.9 59.0 1019.2 0.2 SSW 1.8 NNW 0.0
08:00 21.4 58.1 1019.2 0.1 SW 1.8 NNW 0.0
08:05 21.5 57.9 1019.2 0.1 SW 1.8 NNW 0.0
08:10 22.0 55.7 1019.2 0.2 SSW 1.8 NNW 0.0
08:15 22.1 55.2 1019.2 0.2 SSW 1.8 NNW 0.0
08:20 22.4 54.2 1019.2 0.1 WNW 1.8 NNW 0.0
08:25 22.5 54.0 1019.2 0.1 NW 1.8 NNW 0.0
08:30 22.3 53.6 1019.2 0.1 ENE 1.8 NNW 0.0
08:35 22.3 53.5 1019.2 0.2 NNE 1.8 NNW 0.0
08:40 22.8 52.9 1019.2 0.2 S 1.8 NNW 0.0
08:45 22.9 52.8 1019.2 0.2 SW 1.8 NNW 0.0
08:50 23.8 50.5 1020.0 0.1 SSW 1.8 NNW 0.0
08:55 24.1 49.9 1020.2 0.1 SSW 1.8 NNW 0.0
09:00 24.3 47.4 1020.2 1.4 E 1.8 NNW 0.0
09:05 24.4 46.9 1020.2 1.7 ENE 1.8 NNW 0.0
09:10 24.5 44.5 1020.2 1.9 ENE 1.9 ENE 0.0
09:15 24.5 43.9 1020.2 1.9 E 1.9 E 0.0
09:20 24.7 43.1 1020.2 2.9 ENE 2.9 ENE 0.0
09:25 24.8 42.9 1020.2 3.1 ENE 3.1 ENE 0.0
09:30 24.8 43.0 1020.2 1.8 ENE 3.1 ENE 0.0
09:35 24.8 43.0 1020.2 1.5 ENE 3.1 ENE 0.0
09:40 25.7 41.7 1020.2 1.3 E 3.1 ENE 0.0
09:45 25.9 41.4 1020.2 1.2 E 3.1 ENE 0.0
09:50 26.7 40.3 1020.2 0.8 SSE 3.1 ENE 0.0
09:55 26.9 40.1 1020.2 0.6 S 3.1 ENE 0.0
10:00 27.3 38.0 1020.2 0.2 ESE 3.1 ENE 0.0
10:05 27.4 37.5 1020.2 0.1 E 3.1 ENE 0.0
10:10 27.7 37.3 1020.2 0.6 ESE 3.1 ENE 0.0
10:15 27.7 37.3 1020.2 0.7 ESE 3.1 ENE 0.0
10:20 27.1 35.8 1020.2 1.0 E 3.1 ENE 0.0
10:25 26.9 35.5 1020.2 1.0 E 3.1 ENE 0.0
10:30 26.7 34.4 1020.2 0.5 E 3.1 ENE 0.0
10:35 26.6 34.2 1020.2 0.3 E 3.1 ENE 0.0
10:40 26.6 34.6 1020.2 1.0 E 3.1 ENE 0.0
10:45 26.6 34.7 1020.2 1.2 E 3.1 ENE 0.0
10:50 27.4 34.3 1020.2 0.9 SE 3.1 ENE 0.0
10:55 27.6 34.2 1020.2 0.8 SSE 3.1 ENE 0.0
11:00 28.1 33.0 1020.2 0.5 SE 3.1 ENE 0.0
11:05 28.2 32.7 1020.2 0.4 SE 3.1 ENE 0.0
11:10 27.7 34.0 1019.4 1.2 E 3.1 ENE 0.0
11:15 27.5 34.3 1019.2 1.4 E 3.1 ENE 0.0
11:20 27.9 33.7 1019.2 1.7 SSE 3.1 ENE 0.0
11:25 28.0 33.5 1019.2 1.8 SSE 3.1 ENE 0.0
11:30 28.5 31.4 1019.2 1.4 S 3.1 ENE 0.0
11:35 28.6 30.8 1019.2 1.3 S 3.1 ENE 0.0
11:40 28.4 32.0 1019.2 1.5 E 3.1 ENE 0.0
11:45 28.4 32.3 1019.2 1.6 E 3.1 ENE 0.0
11:50 27.4 33.7 1019.2 1.9 E 3.1 ENE 0.0
11:55 27.1 34.1 1019.2 2.0 E 3.1 ENE 0.0
12:00 28.2 32.9 1019.2 1.4 ESE 3.1 ENE 0.0
12:05 28.4 32.6 1019.2 1.3 ESE 3.1 ENE 0.0
12:10 28.3 32.8 1019.2 0.9 SE 3.1 ENE 0.0
12:15 28.3 32.8 1019.2 0.9 SE 3.1 ENE 0.0
12:20 28.0 33.2 1019.2 1.1 E 3.1 ENE 0.0
12:25 27.9 33.3 1019.2 1.1 ENE 3.1 ENE 0.0
12:30 27.4 33.7 1019.2 1.0 ENE 3.1 ENE 0.0
12:35 27.4 33.7 1019.2 1.0 ENE 3.1 ENE 0.0
12:40 27.8 35.0 1019.2 1.2 E 3.1 ENE 0.0
12:45 27.9 35.3 1019.2 1.2 E 3.1 ENE 0.0
12:50 28.4 35.7 1019.2 1.1 SE 3.1 ENE 0.0
12:55 28.5 35.7 1019.2 1.1 SE 3.1 ENE 0.0
13:00 29.1 34.5 1019.2 1.1 ESE 3.1 ENE 0.0
13:05 29.3 34.2 1019.2 1.0 E 3.1 ENE 0.0
13:10 28.4 35.0 1019.2 1.3 E 3.1 ENE 0.0
13:15 28.2 35.1 1019.2 1.3 E 3.1 ENE 0.0
13:20 28.6 34.6 1018.4 1.7 E 3.1 ENE 0.0
13:25 28.7 34.5 1018.2 1.8 E 3.1 ENE 0.0
13:30 29.0 34.8 1018.2 1.8 ESE 3.1 ENE 0.0
13:35 29.1 34.8 1018.2 1.8 ESE 3.1 ENE 0.0
13:40 29.8 33.9 1018.2 1.5 ESE 3.1 ENE 0.0
13:45 29.9 33.7 1018.2 1.5 ESE 3.1 ENE 0.0
13:50 29.1 34.8 1018.2 1.4 ESE 3.1 ENE 0.0
13:55 29.0 35.0 1018.2 1.4 ESE 3.1 ENE 0.0
14:00 28.9 34.5 1018.2 1.7 E 3.1 ENE 0.0
14:05 28.9 34.4 1018.2 1.8 E 3.1 ENE 0.0
14:10 28.8 34.2 1018.2 1.9 ENE 3.1 ENE 0.0
14:15 28.8 34.2 1018.2 1.9 ENE 3.1 ENE 0.0
14:20 28.8 34.7 1018.2 1.6 ESE 3.1 ENE 0.0
14:25 28.8 34.8 1018.2 1.6 SE 3.1 ENE 0.0
14:30 28.9 34.3 1018.2 1.5 E 3.1 ENE 0.0
14:35 28.9 34.2 1018.2 1.5 ENE 3.1 ENE 0.0
14:40 28.7 35.0 1018.2 1.0 ENE 3.1 ENE 0.0
14:45 28.7 35.1 1018.2 0.9 ENE 3.1 ENE 0.0
14:50 29.2 35.1 1018.2 1.6 ENE 3.1 ENE 0.0
14:55 29.3 35.1 1018.2 1.8 ENE 3.1 ENE 0.0
15:00 29.3 35.3 1017.4 5.1 ENE 5.1 ENE 0.0
15:05 29.3 35.4 1017.2 5.8 ENE 5.8 ENE 0.0
15:10 29.4 35.0 1017.2 1.7 ESE 5.8 ENE 0.0
15:15 29.4 34.9 1017.2 1.0 ESE 5.8 ENE 0.0
15:20 29.5 34.8 1017.2 0.9 E 5.8 ENE 0.0
15:25 29.5 34.8 1017.2 0.9 E 5.8 ENE 0.0
15:30 29.5 34.7 1017.2 1.3 E 5.8 ENE 0.0
15:35 29.5 34.7 1017.2 1.3 E 5.8 ENE 0.0
15:40 29.6 35.0 1018.0 0.9 E 5.8 ENE 0.0
15:45 29.6 35.1 1018.2 0.8 E 5.8 ENE 0.0
15:50 29.4 37.2 1018.2 0.5 SE 5.8 ENE 0.0
15:55 29.3 37.7 1018.2 0.5 SE 5.8 ENE 0.0
16:00 28.5 44.3 1018.2 3.0 SE 5.8 ENE 0.0
16:05 28.4 46.0 1018.2 3.7 SE 5.8 ENE 0.0
16:10 27.9 49.3 1018.2 3.3 SE 5.8 ENE 0.0
16:15 27.8 49.9 1018.2 3.3 SE 5.8 ENE 0.0
16:20 27.6 51.2 1018.2 1.3 SSE 5.8 ENE 0.0
16:25 27.5 51.5 1018.2 0.9 SSE 5.8 ENE 0.0
16:30 27.3 53.0 1018.2 1.4 ESE 5.8 ENE 0.0
Máxima 29.9 79.4 1020.2 5.8 ENE 5.8 ENE 0.0
Mínima 15.5 30.8 1017.2
Total 0.0